sensor_id;sensor_type;location;lat;lon;timestamp;P1;durP1;ratioP1;P2;durP2;ratioP2
31500;SDS011;31032;49.512;10.892;2022-07-01T00:00:00;5.97;;;2.75;;
31500;SDS011;31032;49.512;10.892;2022-07-01T00:02:25;4.15;;;3.00;;
31500;SDS011;31032;49.512;10.892;2022-07-01T00:04:51;5.07;;;2.70;;
31500;SDS011;31032;49.512;10.892;2022-07-01T00:07:16;3.67;;;2.63;;
31500;SDS011;31032;49.512;10.892;2022-07-01T00:09:42;5.05;;;2.80;;
31500;SDS011;31032;49.512;10.892;2022-07-01T00:12:08;3.92;;;2.40;;
31500;SDS011;31032;49.512;10.892;2022-07-01T00:14:34;6.07;;;2.50;;
31500;SDS011;31032;49.512;10.892;2022-07-01T00:16:59;7.10;;;3.05;;
31500;SDS011;31032;49.512;10.892;2022-07-01T00:19:24;6.72;;;3.22;;
31500;SDS011;31032;49.512;10.892;2022-07-01T00:21:50;3.67;;;2.38;;
31500;SDS011;31032;49.512;10.892;2022-07-01T00:24:16;5.45;;;2.55;;
31500;SDS011;31032;49.512;10.892;2022-07-01T00:26:41;4.40;;;2.53;;
31500;SDS011;31032;49.512;10.892;2022-07-01T00:29:07;4.55;;;2.40;;
31500;SDS011;31032;49.512;10.892;2022-07-01T00:31:32;3.85;;;2.42;;
31500;SDS011;31032;49.512;10.892;2022-07-01T00:33:58;6.18;;;2.40;;
31500;SDS011;31032;49.512;10.892;2022-07-01T00:36:23;4.68;;;2.72;;
31500;SDS011;31032;49.512;10.892;2022-07-01T00:38:48;4.90;;;2.78;;
31500;SDS011;31032;49.512;10.892;2022-07-01T00:41:14;4.85;;;2.33;;
31500;SDS011;31032;49.512;10.892;2022-07-01T00:43:39;5.57;;;2.30;;
31500;SDS011;31032;49.512;10.892;2022-07-01T00:46:05;3.88;;;2.17;;
31500;SDS011;31032;49.512;10.892;2022-07-01T00:48:34;6.32;;;2.10;;
31500;SDS011;31032;49.512;10.892;2022-07-01T00:51:01;3.65;;;2.25;;
31500;SDS011;31032;49.512;10.892;2022-07-01T00:53:27;4.72;;;2.38;;
31500;SDS011;31032;49.512;10.892;2022-07-01T00:55:53;6.95;;;2.33;;
31500;SDS011;31032;49.512;10.892;2022-07-01T00:58:18;4.07;;;2.45;;
31500;SDS011;31032;49.512;10.892;2022-07-01T01:00:43;3.78;;;1.83;;
31500;SDS011;31032;49.512;10.892;2022-07-01T01:03:09;3.50;;;1.77;;
31500;SDS011;31032;49.512;10.892;2022-07-01T01:05:36;5.13;;;1.52;;
31500;SDS011;31032;49.512;10.892;2022-07-01T01:08:01;3.58;;;1.92;;
31500;SDS011;31032;49.512;10.892;2022-07-01T01:10:27;2.95;;;1.67;;
31500;SDS011;31032;49.512;10.892;2022-07-01T01:12:53;2.33;;;1.48;;
31500;SDS011;31032;49.512;10.892;2022-07-01T01:15:20;3.90;;;1.90;;
31500;SDS011;31032;49.512;10.892;2022-07-01T01:17:46;3.53;;;1.90;;
31500;SDS011;31032;49.512;10.892;2022-07-01T01:20:18;2.17;;;1.40;;
31500;SDS011;31032;49.512;10.892;2022-07-01T01:22:45;2.80;;;1.75;;
31500;SDS011;31032;49.512;10.892;2022-07-01T01:25:11;5.63;;;1.88;;
31500;SDS011;31032;49.512;10.892;2022-07-01T01:27:37;3.05;;;1.73;;
31500;SDS011;31032;49.512;10.892;2022-07-01T01:30:05;2.63;;;1.60;;
31500;SDS011;31032;49.512;10.892;2022-07-01T01:32:33;3.38;;;1.05;;
31500;SDS011;31032;49.512;10.892;2022-07-01T01:34:59;1.95;;;1.50;;
31500;SDS011;31032;49.512;10.892;2022-07-01T01:37:24;2.58;;;1.30;;
31500;SDS011;31032;49.512;10.892;2022-07-01T01:39:50;2.75;;;1.27;;
31500;SDS011;31032;49.512;10.892;2022-07-01T01:42:15;3.88;;;1.77;;
31500;SDS011;31032;49.512;10.892;2022-07-01T01:44:41;2.45;;;1.42;;
31500;SDS011;31032;49.512;10.892;2022-07-01T01:47:06;1.38;;;1.10;;
31500;SDS011;31032;49.512;10.892;2022-07-01T01:49:32;1.25;;;0.93;;
31500;SDS011;31032;49.512;10.892;2022-07-01T01:51:58;2.10;;;1.42;;
31500;SDS011;31032;49.512;10.892;2022-07-01T01:54:24;3.47;;;1.40;;
31500;SDS011;31032;49.512;10.892;2022-07-01T01:56:50;2.13;;;1.33;;
31500;SDS011;31032;49.512;10.892;2022-07-01T01:59:15;2.35;;;1.40;;
31500;SDS011;31032;49.512;10.892;2022-07-01T02:01:41;1.75;;;1.30;;
31500;SDS011;31032;49.512;10.892;2022-07-01T02:04:06;1.88;;;1.15;;
31500;SDS011;31032;49.512;10.892;2022-07-01T02:06:32;2.92;;;1.58;;
31500;SDS011;31032;49.512;10.892;2022-07-01T02:08:57;4.00;;;1.17;;
31500;SDS011;31032;49.512;10.892;2022-07-01T02:11:23;2.40;;;1.40;;
31500;SDS011;31032;49.512;10.892;2022-07-01T02:13:48;3.47;;;1.27;;
31500;SDS011;31032;49.512;10.892;2022-07-01T02:16:13;1.98;;;1.30;;
31500;SDS011;31032;49.512;10.892;2022-07-01T02:18:39;2.92;;;1.08;;
31500;SDS011;31032;49.512;10.892;2022-07-01T02:21:04;1.50;;;1.10;;
31500;SDS011;31032;49.512;10.892;2022-07-01T02:23:29;2.50;;;1.02;;
31500;SDS011;31032;49.512;10.892;2022-07-01T02:25:55;1.55;;;1.13;;
31500;SDS011;31032;49.512;10.892;2022-07-01T02:28:20;1.25;;;1.10;;
31500;SDS011;31032;49.512;10.892;2022-07-01T02:30:46;4.40;;;1.63;;
31500;SDS011;31032;49.512;10.892;2022-07-01T02:33:12;2.65;;;1.40;;
31500;SDS011;31032;49.512;10.892;2022-07-01T02:35:39;3.25;;;1.38;;
31500;SDS011;31032;49.512;10.892;2022-07-01T02:38:05;2.10;;;1.30;;
31500;SDS011;31032;49.512;10.892;2022-07-01T02:40:32;2.05;;;1.40;;
31500;SDS011;31032;49.512;10.892;2022-07-01T02:42:59;3.28;;;1.23;;
31500;SDS011;31032;49.512;10.892;2022-07-01T02:45:25;2.88;;;1.33;;
31500;SDS011;31032;49.512;10.892;2022-07-01T02:47:50;2.80;;;1.58;;
31500;SDS011;31032;49.512;10.892;2022-07-01T02:50:17;2.85;;;1.33;;
31500;SDS011;31032;49.512;10.892;2022-07-01T02:52:44;4.70;;;1.60;;
31500;SDS011;31032;49.512;10.892;2022-07-01T02:55:10;4.75;;;1.80;;
31500;SDS011;31032;49.512;10.892;2022-07-01T02:57:38;2.17;;;1.70;;
31500;SDS011;31032;49.512;10.892;2022-07-01T03:00:05;3.72;;;1.60;;
31500;SDS011;31032;49.512;10.892;2022-07-01T03:02:32;2.60;;;1.50;;
31500;SDS011;31032;49.512;10.892;2022-07-01T03:04:57;4.72;;;1.63;;
31500;SDS011;31032;49.512;10.892;2022-07-01T03:07:23;4.32;;;1.70;;
31500;SDS011;31032;49.512;10.892;2022-07-01T03:09:48;4.55;;;2.00;;
31500;SDS011;31032;49.512;10.892;2022-07-01T03:12:14;2.80;;;2.00;;
31500;SDS011;31032;49.512;10.892;2022-07-01T03:14:59;2.38;;;1.85;;
31500;SDS011;31032;49.512;10.892;2022-07-01T03:17:25;2.95;;;2.00;;
31500;SDS011;31032;49.512;10.892;2022-07-01T03:19:52;3.45;;;2.05;;
31500;SDS011;31032;49.512;10.892;2022-07-01T03:22:22;2.45;;;1.73;;
31500;SDS011;31032;49.512;10.892;2022-07-01T03:24:48;2.53;;;2.10;;
31500;SDS011;31032;49.512;10.892;2022-07-01T03:27:15;3.65;;;1.90;;
31500;SDS011;31032;49.512;10.892;2022-07-01T03:29:41;2.70;;;2.05;;
31500;SDS011;31032;49.512;10.892;2022-07-01T03:32:07;3.10;;;2.20;;
31500;SDS011;31032;49.512;10.892;2022-07-01T03:34:34;3.55;;;2.28;;
31500;SDS011;31032;49.512;10.892;2022-07-01T03:37:01;4.05;;;2.08;;
31500;SDS011;31032;49.512;10.892;2022-07-01T03:39:26;3.60;;;1.92;;
31500;SDS011;31032;49.512;10.892;2022-07-01T03:41:51;3.70;;;2.47;;
31500;SDS011;31032;49.512;10.892;2022-07-01T03:44:17;4.05;;;2.30;;
31500;SDS011;31032;49.512;10.892;2022-07-01T03:46:42;3.35;;;2.42;;
31500;SDS011;31032;49.512;10.892;2022-07-01T03:49:07;3.15;;;2.28;;
31500;SDS011;31032;49.512;10.892;2022-07-01T03:51:33;2.95;;;2.20;;
31500;SDS011;31032;49.512;10.892;2022-07-01T03:53:59;2.35;;;2.00;;
31500;SDS011;31032;49.512;10.892;2022-07-01T03:56:57;2.42;;;2.03;;
31500;SDS011;31032;49.512;10.892;2022-07-01T03:59:23;3.55;;;1.70;;
31500;SDS011;31032;49.512;10.892;2022-07-01T04:01:49;4.95;;;1.75;;
31500;SDS011;31032;49.512;10.892;2022-07-01T04:04:14;2.60;;;2.00;;
31500;SDS011;31032;49.512;10.892;2022-07-01T04:06:39;3.50;;;1.90;;
31500;SDS011;31032;49.512;10.892;2022-07-01T04:09:05;2.22;;;1.75;;
31500;SDS011;31032;49.512;10.892;2022-07-01T04:11:30;3.40;;;1.75;;
31500;SDS011;31032;49.512;10.892;2022-07-01T04:13:56;2.92;;;1.98;;
31500;SDS011;31032;49.512;10.892;2022-07-01T04:16:22;4.18;;;2.40;;
31500;SDS011;31032;49.512;10.892;2022-07-01T04:18:48;3.33;;;2.00;;
31500;SDS011;31032;49.512;10.892;2022-07-01T04:21:14;5.05;;;2.30;;
31500;SDS011;31032;49.512;10.892;2022-07-01T04:23:58;3.65;;;2.58;;
31500;SDS011;31032;49.512;10.892;2022-07-01T04:26:24;3.42;;;1.90;;
31500;SDS011;31032;49.512;10.892;2022-07-01T04:28:52;2.92;;;2.00;;
31500;SDS011;31032;49.512;10.892;2022-07-01T04:31:19;2.88;;;2.30;;
31500;SDS011;31032;49.512;10.892;2022-07-01T04:33:45;4.53;;;2.38;;
31500;SDS011;31032;49.512;10.892;2022-07-01T04:36:14;3.22;;;2.03;;
31500;SDS011;31032;49.512;10.892;2022-07-01T04:38:40;3.38;;;1.92;;
31500;SDS011;31032;49.512;10.892;2022-07-01T04:41:05;3.10;;;2.08;;
31500;SDS011;31032;49.512;10.892;2022-07-01T04:43:49;2.33;;;2.13;;
31500;SDS011;31032;49.512;10.892;2022-07-01T04:46:14;2.33;;;2.00;;
31500;SDS011;31032;49.512;10.892;2022-07-01T04:48:40;4.18;;;2.22;;
31500;SDS011;31032;49.512;10.892;2022-07-01T04:51:05;4.05;;;2.35;;
31500;SDS011;31032;49.512;10.892;2022-07-01T04:53:31;3.35;;;2.28;;
31500;SDS011;31032;49.512;10.892;2022-07-01T04:55:57;3.10;;;2.15;;
31500;SDS011;31032;49.512;10.892;2022-07-01T04:58:22;3.88;;;2.60;;
31500;SDS011;31032;49.512;10.892;2022-07-01T05:00:48;4.68;;;2.83;;
31500;SDS011;31032;49.512;10.892;2022-07-01T05:03:14;3.80;;;2.83;;
31500;SDS011;31032;49.512;10.892;2022-07-01T05:05:39;3.85;;;2.53;;
31500;SDS011;31032;49.512;10.892;2022-07-01T05:08:05;3.72;;;2.90;;
31500;SDS011;31032;49.512;10.892;2022-07-01T05:10:30;5.55;;;2.95;;
31500;SDS011;31032;49.512;10.892;2022-07-01T05:12:55;4.35;;;3.17;;
31500;SDS011;31032;49.512;10.892;2022-07-01T05:15:21;4.10;;;2.38;;
31500;SDS011;31032;49.512;10.892;2022-07-01T05:17:46;2.53;;;2.30;;
31500;SDS011;31032;49.512;10.892;2022-07-01T05:20:30;3.50;;;2.05;;
31500;SDS011;31032;49.512;10.892;2022-07-01T05:23:14;3.17;;;2.03;;
31500;SDS011;31032;49.512;10.892;2022-07-01T05:25:39;2.47;;;1.90;;
31500;SDS011;31032;49.512;10.892;2022-07-01T05:28:04;2.15;;;1.92;;
31500;SDS011;31032;49.512;10.892;2022-07-01T05:30:30;2.83;;;1.98;;
31500;SDS011;31032;49.512;10.892;2022-07-01T05:32:55;3.28;;;1.52;;
31500;SDS011;31032;49.512;10.892;2022-07-01T05:35:20;2.90;;;1.98;;
31500;SDS011;31032;49.512;10.892;2022-07-01T05:37:46;1.85;;;1.55;;
31500;SDS011;31032;49.512;10.892;2022-07-01T05:40:11;2.55;;;1.90;;
31500;SDS011;31032;49.512;10.892;2022-07-01T05:42:37;2.00;;;1.33;;
31500;SDS011;31032;49.512;10.892;2022-07-01T05:45:02;1.90;;;1.35;;
31500;SDS011;31032;49.512;10.892;2022-07-01T05:47:28;2.42;;;1.33;;
31500;SDS011;31032;49.512;10.892;2022-07-01T05:49:53;1.85;;;1.58;;
31500;SDS011;31032;49.512;10.892;2022-07-01T05:52:18;1.92;;;1.17;;
31500;SDS011;31032;49.512;10.892;2022-07-01T05:54:44;1.52;;;1.15;;
31500;SDS011;31032;49.512;10.892;2022-07-01T05:57:09;1.67;;;1.08;;
31500;SDS011;31032;49.512;10.892;2022-07-01T05:59:35;1.73;;;1.05;;
31500;SDS011;31032;49.512;10.892;2022-07-01T06:02:00;3.30;;;1.63;;
31500;SDS011;31032;49.512;10.892;2022-07-01T06:04:25;1.95;;;1.38;;
31500;SDS011;31032;49.512;10.892;2022-07-01T06:06:51;1.52;;;1.10;;
31500;SDS011;31032;49.512;10.892;2022-07-01T06:09:16;1.42;;;1.13;;
31500;SDS011;31032;49.512;10.892;2022-07-01T06:11:41;2.03;;;1.35;;
31500;SDS011;31032;49.512;10.892;2022-07-01T06:14:07;1.35;;;1.10;;
31500;SDS011;31032;49.512;10.892;2022-07-01T06:16:33;1.50;;;0.90;;
31500;SDS011;31032;49.512;10.892;2022-07-01T06:18:58;2.53;;;1.20;;
31500;SDS011;31032;49.512;10.892;2022-07-01T06:21:24;1.45;;;1.15;;
31500;SDS011;31032;49.512;10.892;2022-07-01T06:23:49;1.70;;;1.15;;
31500;SDS011;31032;49.512;10.892;2022-07-01T06:26:14;2.85;;;1.00;;
31500;SDS011;31032;49.512;10.892;2022-07-01T06:28:40;1.80;;;1.20;;
31500;SDS011;31032;49.512;10.892;2022-07-01T06:31:06;1.20;;;1.00;;
31500;SDS011;31032;49.512;10.892;2022-07-01T06:33:32;2.47;;;1.35;;
31500;SDS011;31032;49.512;10.892;2022-07-01T06:35:58;1.63;;;1.17;;
31500;SDS011;31032;49.512;10.892;2022-07-01T06:38:23;2.90;;;1.20;;
31500;SDS011;31032;49.512;10.892;2022-07-01T06:40:49;1.40;;;1.00;;
31500;SDS011;31032;49.512;10.892;2022-07-01T06:43:33;1.65;;;1.17;;
31500;SDS011;31032;49.512;10.892;2022-07-01T06:45:59;1.30;;;0.93;;
31500;SDS011;31032;49.512;10.892;2022-07-01T06:48:25;1.42;;;1.08;;
31500;SDS011;31032;49.512;10.892;2022-07-01T06:50:50;3.60;;;1.05;;
31500;SDS011;31032;49.512;10.892;2022-07-01T06:53:15;2.58;;;1.10;;
31500;SDS011;31032;49.512;10.892;2022-07-01T06:55:41;1.13;;;0.93;;
31500;SDS011;31032;49.512;10.892;2022-07-01T06:58:06;2.78;;;1.40;;
31500;SDS011;31032;49.512;10.892;2022-07-01T07:00:32;1.92;;;1.30;;
31500;SDS011;31032;49.512;10.892;2022-07-01T07:02:57;2.67;;;1.20;;
31500;SDS011;31032;49.512;10.892;2022-07-01T07:05:23;3.20;;;1.00;;
31500;SDS011;31032;49.512;10.892;2022-07-01T07:07:48;1.77;;;1.33;;
31500;SDS011;31032;49.512;10.892;2022-07-01T07:10:13;1.90;;;1.08;;
31500;SDS011;31032;49.512;10.892;2022-07-01T07:12:39;2.50;;;1.50;;
31500;SDS011;31032;49.512;10.892;2022-07-01T07:15:04;1.90;;;1.30;;
31500;SDS011;31032;49.512;10.892;2022-07-01T07:17:30;2.20;;;1.40;;
31500;SDS011;31032;49.512;10.892;2022-07-01T07:19:56;2.28;;;1.50;;
31500;SDS011;31032;49.512;10.892;2022-07-01T07:22:21;3.13;;;1.90;;
31500;SDS011;31032;49.512;10.892;2022-07-01T07:24:47;2.83;;;1.85;;
31500;SDS011;31032;49.512;10.892;2022-07-01T07:27:13;2.95;;;1.80;;
31500;SDS011;31032;49.512;10.892;2022-07-01T07:29:38;2.55;;;1.88;;
31500;SDS011;31032;49.512;10.892;2022-07-01T07:32:04;3.33;;;2.08;;
31500;SDS011;31032;49.512;10.892;2022-07-01T07:34:29;3.72;;;2.30;;
31500;SDS011;31032;49.512;10.892;2022-07-01T07:36:55;5.40;;;2.58;;
31500;SDS011;31032;49.512;10.892;2022-07-01T07:39:20;4.25;;;2.00;;
31500;SDS011;31032;49.512;10.892;2022-07-01T07:41:46;3.83;;;2.03;;
31500;SDS011;31032;49.512;10.892;2022-07-01T07:44:11;3.22;;;2.17;;
31500;SDS011;31032;49.512;10.892;2022-07-01T07:46:37;5.88;;;2.42;;
31500;SDS011;31032;49.512;10.892;2022-07-01T07:49:02;3.13;;;2.58;;
31500;SDS011;31032;49.512;10.892;2022-07-01T07:51:28;3.22;;;1.95;;
31500;SDS011;31032;49.512;10.892;2022-07-01T07:53:53;2.97;;;1.73;;
31500;SDS011;31032;49.512;10.892;2022-07-01T07:56:18;4.35;;;2.08;;
31500;SDS011;31032;49.512;10.892;2022-07-01T07:58:46;3.03;;;1.88;;
31500;SDS011;31032;49.512;10.892;2022-07-01T08:01:11;4.85;;;2.20;;
31500;SDS011;31032;49.512;10.892;2022-07-01T08:03:37;4.40;;;2.08;;
31500;SDS011;31032;49.512;10.892;2022-07-01T08:06:02;4.45;;;2.28;;
31500;SDS011;31032;49.512;10.892;2022-07-01T08:08:28;4.43;;;1.92;;
31500;SDS011;31032;49.512;10.892;2022-07-01T08:10:53;3.25;;;2.13;;
31500;SDS011;31032;49.512;10.892;2022-07-01T08:13:19;3.92;;;2.20;;
31500;SDS011;31032;49.512;10.892;2022-07-01T08:15:44;3.25;;;2.30;;
31500;SDS011;31032;49.512;10.892;2022-07-01T08:18:10;4.32;;;1.90;;
31500;SDS011;31032;49.512;10.892;2022-07-01T08:20:35;3.65;;;2.00;;
31500;SDS011;31032;49.512;10.892;2022-07-01T08:23:01;3.55;;;2.30;;
31500;SDS011;31032;49.512;10.892;2022-07-01T08:25:26;2.80;;;1.90;;
31500;SDS011;31032;49.512;10.892;2022-07-01T08:27:51;2.90;;;1.98;;
31500;SDS011;31032;49.512;10.892;2022-07-01T08:30:17;3.95;;;2.13;;
31500;SDS011;31032;49.512;10.892;2022-07-01T08:32:43;3.88;;;2.00;;
31500;SDS011;31032;49.512;10.892;2022-07-01T08:35:08;4.90;;;1.73;;
31500;SDS011;31032;49.512;10.892;2022-07-01T08:37:34;5.32;;;2.28;;
31500;SDS011;31032;49.512;10.892;2022-07-01T08:39:59;3.20;;;1.60;;
31500;SDS011;31032;49.512;10.892;2022-07-01T08:42:24;3.20;;;1.98;;
31500;SDS011;31032;49.512;10.892;2022-07-01T08:44:50;2.97;;;1.60;;
31500;SDS011;31032;49.512;10.892;2022-07-01T08:47:15;2.55;;;1.98;;
31500;SDS011;31032;49.512;10.892;2022-07-01T08:49:41;4.03;;;2.67;;
31500;SDS011;31032;49.512;10.892;2022-07-01T08:52:06;2.85;;;1.80;;
31500;SDS011;31032;49.512;10.892;2022-07-01T08:54:34;3.08;;;1.80;;
31500;SDS011;31032;49.512;10.892;2022-07-01T08:57:02;2.30;;;1.50;;
31500;SDS011;31032;49.512;10.892;2022-07-01T08:59:28;5.85;;;1.65;;
31500;SDS011;31032;49.512;10.892;2022-07-01T09:01:55;2.88;;;1.65;;
31500;SDS011;31032;49.512;10.892;2022-07-01T09:04:24;3.92;;;2.05;;
31500;SDS011;31032;49.512;10.892;2022-07-01T09:06:50;2.67;;;1.35;;
31500;SDS011;31032;49.512;10.892;2022-07-01T09:09:17;1.80;;;1.38;;
31500;SDS011;31032;49.512;10.892;2022-07-01T09:11:52;2.40;;;1.48;;
31500;SDS011;31032;49.512;10.892;2022-07-01T09:14:19;3.05;;;1.98;;
31500;SDS011;31032;49.512;10.892;2022-07-01T09:16:47;2.53;;;1.63;;
31500;SDS011;31032;49.512;10.892;2022-07-01T09:19:15;3.15;;;1.70;;
31500;SDS011;31032;49.512;10.892;2022-07-01T09:21:41;2.80;;;1.77;;
31500;SDS011;31032;49.512;10.892;2022-07-01T09:24:23;2.78;;;1.80;;
31500;SDS011;31032;49.512;10.892;2022-07-01T09:27:03;2.67;;;1.80;;
31500;SDS011;31032;49.512;10.892;2022-07-01T09:29:34;3.45;;;1.65;;
31500;SDS011;31032;49.512;10.892;2022-07-01T09:32:02;2.25;;;1.67;;
31500;SDS011;31032;49.512;10.892;2022-07-01T09:34:48;2.58;;;1.67;;
31500;SDS011;31032;49.512;10.892;2022-07-01T09:37:16;1.98;;;1.58;;
31500;SDS011;31032;49.512;10.892;2022-07-01T09:39:50;2.05;;;1.50;;
31500;SDS011;31032;49.512;10.892;2022-07-01T09:42:17;2.35;;;1.55;;
31500;SDS011;31032;49.512;10.892;2022-07-01T09:44:57;1.85;;;1.65;;
31500;SDS011;31032;49.512;10.892;2022-07-01T09:47:31;3.83;;;1.58;;
31500;SDS011;31032;49.512;10.892;2022-07-01T09:49:58;3.42;;;1.70;;
31500;SDS011;31032;49.512;10.892;2022-07-01T09:52:24;2.38;;;1.85;;
31500;SDS011;31032;49.512;10.892;2022-07-01T09:54:50;2.40;;;1.60;;
31500;SDS011;31032;49.512;10.892;2022-07-01T09:57:17;2.80;;;1.77;;
31500;SDS011;31032;49.512;10.892;2022-07-01T09:59:43;2.63;;;1.65;;
31500;SDS011;31032;49.512;10.892;2022-07-01T10:02:10;2.40;;;1.65;;
31500;SDS011;31032;49.512;10.892;2022-07-01T10:04:36;2.85;;;1.67;;
31500;SDS011;31032;49.512;10.892;2022-07-01T10:07:10;3.42;;;1.60;;
31500;SDS011;31032;49.512;10.892;2022-07-01T10:10:02;2.08;;;1.77;;
31500;SDS011;31032;49.512;10.892;2022-07-01T10:12:43;2.45;;;1.85;;
31500;SDS011;31032;49.512;10.892;2022-07-01T10:15:15;2.60;;;1.67;;
31500;SDS011;31032;49.512;10.892;2022-07-01T10:17:44;4.95;;;1.60;;
31500;SDS011;31032;49.512;10.892;2022-07-01T10:20:13;2.22;;;1.58;;
31500;SDS011;31032;49.512;10.892;2022-07-01T10:28:13;4.50;;;2.15;;
31500;SDS011;31032;49.512;10.892;2022-07-01T10:36:19;2.10;;;1.40;;
31500;SDS011;31032;49.512;10.892;2022-07-01T10:41:29;2.80;;;1.58;;
31500;SDS011;31032;49.512;10.892;2022-07-01T10:43:56;1.53;;;1.23;;
31500;SDS011;31032;49.512;10.892;2022-07-01T10:46:41;3.50;;;1.45;;
31500;SDS011;31032;49.512;10.892;2022-07-01T10:49:12;2.92;;;1.60;;
31500;SDS011;31032;49.512;10.892;2022-07-01T10:51:42;2.35;;;1.38;;
31500;SDS011;31032;49.512;10.892;2022-07-01T10:54:10;2.33;;;1.40;;
31500;SDS011;31032;49.512;10.892;2022-07-01T10:56:39;1.67;;;1.10;;
31500;SDS011;31032;49.512;10.892;2022-07-01T10:59:05;3.08;;;1.23;;
31500;SDS011;31032;49.512;10.892;2022-07-01T11:01:31;2.75;;;1.55;;
31500;SDS011;31032;49.512;10.892;2022-07-01T11:03:56;2.08;;;1.58;;
31500;SDS011;31032;49.512;10.892;2022-07-01T11:06:22;2.72;;;1.80;;
31500;SDS011;31032;49.512;10.892;2022-07-01T11:08:49;2.05;;;1.60;;
31500;SDS011;31032;49.512;10.892;2022-07-01T11:11:15;4.13;;;1.88;;
31500;SDS011;31032;49.512;10.892;2022-07-01T11:13:41;3.45;;;1.60;;
31500;SDS011;31032;49.512;10.892;2022-07-01T11:16:07;2.80;;;1.60;;
31500;SDS011;31032;49.512;10.892;2022-07-01T11:18:34;2.35;;;1.60;;
31500;SDS011;31032;49.512;10.892;2022-07-01T11:21:03;2.67;;;1.70;;
31500;SDS011;31032;49.512;10.892;2022-07-01T11:23:30;1.98;;;1.60;;
31500;SDS011;31032;49.512;10.892;2022-07-01T11:25:55;1.63;;;1.20;;
31500;SDS011;31032;49.512;10.892;2022-07-01T11:28:21;2.85;;;1.90;;
31500;SDS011;31032;49.512;10.892;2022-07-01T11:30:46;3.47;;;1.50;;
31500;SDS011;31032;49.512;10.892;2022-07-01T11:33:11;2.13;;;1.48;;
31500;SDS011;31032;49.512;10.892;2022-07-01T11:35:37;2.90;;;1.40;;
31500;SDS011;31032;49.512;10.892;2022-07-01T11:38:23;2.63;;;1.63;;
31500;SDS011;31032;49.512;10.892;2022-07-01T11:41:09;2.33;;;1.42;;
31500;SDS011;31032;49.512;10.892;2022-07-01T11:43:44;1.98;;;1.33;;
31500;SDS011;31032;49.512;10.892;2022-07-01T11:46:10;1.95;;;1.25;;
31500;SDS011;31032;49.512;10.892;2022-07-01T11:48:43;2.08;;;1.40;;
31500;SDS011;31032;49.512;10.892;2022-07-01T11:51:11;1.92;;;1.20;;
31500;SDS011;31032;49.512;10.892;2022-07-01T11:53:38;1.70;;;1.38;;
31500;SDS011;31032;49.512;10.892;2022-07-01T11:56:05;3.85;;;1.33;;
31500;SDS011;31032;49.512;10.892;2022-07-01T11:58:40;2.42;;;1.35;;
31500;SDS011;31032;49.512;10.892;2022-07-01T12:01:05;3.05;;;1.60;;
31500;SDS011;31032;49.512;10.892;2022-07-01T12:03:33;1.85;;;1.38;;
31500;SDS011;31032;49.512;10.892;2022-07-01T12:05:58;2.42;;;1.40;;
31500;SDS011;31032;49.512;10.892;2022-07-01T12:08:24;2.15;;;1.60;;
31500;SDS011;31032;49.512;10.892;2022-07-01T12:10:50;3.08;;;1.85;;
31500;SDS011;31032;49.512;10.892;2022-07-01T12:13:24;1.88;;;1.40;;
31500;SDS011;31032;49.512;10.892;2022-07-01T12:15:51;1.80;;;1.25;;
31500;SDS011;31032;49.512;10.892;2022-07-01T12:18:17;2.35;;;1.17;;
31500;SDS011;31032;49.512;10.892;2022-07-01T12:20:49;2.00;;;1.30;;
31500;SDS011;31032;49.512;10.892;2022-07-01T12:23:15;1.52;;;0.90;;
31500;SDS011;31032;49.512;10.892;2022-07-01T12:25:46;1.75;;;0.90;;
31500;SDS011;31032;49.512;10.892;2022-07-01T12:30:58;2.00;;;1.13;;
31500;SDS011;31032;49.512;10.892;2022-07-01T12:33:24;1.70;;;1.25;;
31500;SDS011;31032;49.512;10.892;2022-07-01T12:35:50;4.25;;;1.20;;
31500;SDS011;31032;49.512;10.892;2022-07-01T12:38:16;1.33;;;0.93;;
31500;SDS011;31032;49.512;10.892;2022-07-01T12:40:41;1.55;;;1.00;;
31500;SDS011;31032;49.512;10.892;2022-07-01T12:43:21;3.17;;;1.15;;
31500;SDS011;31032;49.512;10.892;2022-07-01T12:45:47;1.83;;;1.08;;
31500;SDS011;31032;49.512;10.892;2022-07-01T12:48:13;1.45;;;1.10;;
31500;SDS011;31032;49.512;10.892;2022-07-01T12:50:38;1.58;;;1.17;;
31500;SDS011;31032;49.512;10.892;2022-07-01T12:53:04;2.75;;;1.05;;
31500;SDS011;31032;49.512;10.892;2022-07-01T12:58:01;1.98;;;1.13;;
31500;SDS011;31032;49.512;10.892;2022-07-01T13:00:59;2.15;;;1.20;;
31500;SDS011;31032;49.512;10.892;2022-07-01T13:03:25;2.78;;;1.52;;
31500;SDS011;31032;49.512;10.892;2022-07-01T13:05:52;1.65;;;1.00;;
31500;SDS011;31032;49.512;10.892;2022-07-01T13:08:19;1.25;;;0.90;;
31500;SDS011;31032;49.512;10.892;2022-07-01T13:10:45;3.30;;;1.08;;
31500;SDS011;31032;49.512;10.892;2022-07-01T13:13:12;2.95;;;1.17;;
31500;SDS011;31032;49.512;10.892;2022-07-01T13:15:39;3.58;;;1.33;;
31500;SDS011;31032;49.512;10.892;2022-07-01T13:18:04;2.50;;;0.90;;
31500;SDS011;31032;49.512;10.892;2022-07-01T13:20:30;1.38;;;0.95;;
31500;SDS011;31032;49.512;10.892;2022-07-01T13:22:56;2.45;;;1.08;;
31500;SDS011;31032;49.512;10.892;2022-07-01T13:25:21;3.03;;;1.00;;
31500;SDS011;31032;49.512;10.892;2022-07-01T13:27:47;2.45;;;1.35;;
31500;SDS011;31032;49.512;10.892;2022-07-01T13:30:12;2.72;;;1.42;;
31500;SDS011;31032;49.512;10.892;2022-07-01T13:32:39;4.13;;;1.58;;
31500;SDS011;31032;49.512;10.892;2022-07-01T13:35:06;2.67;;;1.30;;
31500;SDS011;31032;49.512;10.892;2022-07-01T13:37:32;2.25;;;1.40;;
31500;SDS011;31032;49.512;10.892;2022-07-01T13:39:58;1.65;;;1.08;;
31500;SDS011;31032;49.512;10.892;2022-07-01T13:42:23;1.38;;;0.93;;
31500;SDS011;31032;49.512;10.892;2022-07-01T13:44:48;2.28;;;1.42;;
31500;SDS011;31032;49.512;10.892;2022-07-01T13:47:15;2.03;;;1.42;;
31500;SDS011;31032;49.512;10.892;2022-07-01T13:49:41;3.33;;;1.40;;
31500;SDS011;31032;49.512;10.892;2022-07-01T13:52:09;2.72;;;1.48;;
31500;SDS011;31032;49.512;10.892;2022-07-01T13:54:35;3.47;;;1.75;;
31500;SDS011;31032;49.512;10.892;2022-07-01T13:57:01;3.60;;;2.00;;
31500;SDS011;31032;49.512;10.892;2022-07-01T13:59:27;4.82;;;2.03;;
31500;SDS011;31032;49.512;10.892;2022-07-01T14:01:52;2.95;;;1.95;;
31500;SDS011;31032;49.512;10.892;2022-07-01T14:04:17;2.72;;;2.03;;
31500;SDS011;31032;49.512;10.892;2022-07-01T14:06:43;2.38;;;1.70;;
31500;SDS011;31032;49.512;10.892;2022-07-01T14:09:08;2.38;;;1.45;;
31500;SDS011;31032;49.512;10.892;2022-07-01T14:11:34;3.15;;;1.60;;
31500;SDS011;31032;49.512;10.892;2022-07-01T14:13:59;3.83;;;1.98;;
31500;SDS011;31032;49.512;10.892;2022-07-01T14:16:24;2.22;;;1.55;;
31500;SDS011;31032;49.512;10.892;2022-07-01T14:18:51;2.75;;;1.70;;
31500;SDS011;31032;49.512;10.892;2022-07-01T14:21:16;1.80;;;1.25;;
31500;SDS011;31032;49.512;10.892;2022-07-01T14:23:42;2.40;;;1.30;;
31500;SDS011;31032;49.512;10.892;2022-07-01T14:26:08;2.10;;;1.48;;
31500;SDS011;31032;49.512;10.892;2022-07-01T14:28:33;2.10;;;1.40;;
31500;SDS011;31032;49.512;10.892;2022-07-01T14:30:58;3.38;;;2.13;;
31500;SDS011;31032;49.512;10.892;2022-07-01T14:33:26;3.15;;;1.67;;
31500;SDS011;31032;49.512;10.892;2022-07-01T14:35:52;3.75;;;1.85;;
31500;SDS011;31032;49.512;10.892;2022-07-01T14:38:17;1.92;;;1.35;;
31500;SDS011;31032;49.512;10.892;2022-07-01T14:40:43;5.18;;;1.83;;
31500;SDS011;31032;49.512;10.892;2022-07-01T14:43:09;1.67;;;1.30;;
31500;SDS011;31032;49.512;10.892;2022-07-01T14:45:34;3.88;;;1.52;;
31500;SDS011;31032;49.512;10.892;2022-07-01T14:48:00;2.40;;;1.40;;
31500;SDS011;31032;49.512;10.892;2022-07-01T14:50:25;1.73;;;1.20;;